sensor_id;sensor_type;location;lat;lon;timestamp;temperature;humidity
80210;DHT22;69529;37.974;23.708;2023-04-25T00:00:03;23.70;45.00
80210;DHT22;69529;37.974;23.708;2023-04-25T00:02:33;23.80;45.00
80210;DHT22;69529;37.974;23.708;2023-04-25T00:05:02;23.80;45.00
80210;DHT22;69529;37.974;23.708;2023-04-25T00:07:30;23.70;44.90
80210;DHT22;69529;37.974;23.708;2023-04-25T00:09:59;23.70;44.90
80210;DHT22;69529;37.974;23.708;2023-04-25T00:12:26;23.70;44.70
80210;DHT22;69529;37.974;23.708;2023-04-25T00:14:55;23.70;44.70
80210;DHT22;69529;37.974;23.708;2023-04-25T00:17:26;23.70;44.60
80210;DHT22;69529;37.974;23.708;2023-04-25T00:19:54;23.70;44.30
80210;DHT22;69529;37.974;23.708;2023-04-25T00:22:22;23.70;44.20
80210;DHT22;69529;37.974;23.708;2023-04-25T00:24:50;23.70;44.00
80210;DHT22;69529;37.974;23.708;2023-04-25T00:27:19;23.70;44.00
80210;DHT22;69529;37.974;23.708;2023-04-25T00:29:47;23.80;43.90
80210;DHT22;69529;37.974;23.708;2023-04-25T00:32:15;23.80;44.20
80210;DHT22;69529;37.974;23.708;2023-04-25T00:34:42;23.80;43.60
80210;DHT22;69529;37.974;23.708;2023-04-25T00:37:10;23.80;43.60
80210;DHT22;69529;37.974;23.708;2023-04-25T00:39:38;23.80;43.50
80210;DHT22;69529;37.974;23.708;2023-04-25T00:42:06;23.80;43.30
80210;DHT22;69529;37.974;23.708;2023-04-25T00:44:35;23.80;43.00
80210;DHT22;69529;37.974;23.708;2023-04-25T00:47:05;23.80;43.00
80210;DHT22;69529;37.974;23.708;2023-04-25T00:49:33;23.80;42.90
80210;DHT22;69529;37.974;23.708;2023-04-25T00:52:00;23.80;42.90
80210;DHT22;69529;37.974;23.708;2023-04-25T00:54:28;23.70;42.80
80210;DHT22;69529;37.974;23.708;2023-04-25T00:56:57;23.80;42.70
80210;DHT22;69529;37.974;23.708;2023-04-25T00:59:25;23.80;42.80
80210;DHT22;69529;37.974;23.708;2023-04-25T01:01:54;23.80;42.60
80210;DHT22;69529;37.974;23.708;2023-04-25T01:04:21;23.80;42.60
80210;DHT22;69529;37.974;23.708;2023-04-25T01:06:50;23.80;42.70
80210;DHT22;69529;37.974;23.708;2023-04-25T01:09:19;23.80;42.60
80210;DHT22;69529;37.974;23.708;2023-04-25T01:11:47;23.70;42.50
80210;DHT22;69529;37.974;23.708;2023-04-25T01:14:14;23.80;42.40
80210;DHT22;69529;37.974;23.708;2023-04-25T01:16:42;23.80;42.30
80210;DHT22;69529;37.974;23.708;2023-04-25T01:19:11;23.80;42.20
80210;DHT22;69529;37.974;23.708;2023-04-25T01:21:39;23.80;42.10
80210;DHT22;69529;37.974;23.708;2023-04-25T01:24:07;23.70;41.90
80210;DHT22;69529;37.974;23.708;2023-04-25T01:26:35;23.70;41.90
80210;DHT22;69529;37.974;23.708;2023-04-25T01:29:04;23.70;41.80
80210;DHT22;69529;37.974;23.708;2023-04-25T01:31:33;23.80;41.70
80210;DHT22;69529;37.974;23.708;2023-04-25T01:34:01;23.70;41.60
80210;DHT22;69529;37.974;23.708;2023-04-25T01:36:29;23.80;41.60
80210;DHT22;69529;37.974;23.708;2023-04-25T01:38:57;23.80;41.60
80210;DHT22;69529;37.974;23.708;2023-04-25T01:41:25;23.70;41.50
80210;DHT22;69529;37.974;23.708;2023-04-25T01:43:54;23.70;41.40
80210;DHT22;69529;37.974;23.708;2023-04-25T01:46:21;23.70;41.40
80210;DHT22;69529;37.974;23.708;2023-04-25T01:48:49;23.70;41.50
80210;DHT22;69529;37.974;23.708;2023-04-25T01:51:17;23.70;41.50
80210;DHT22;69529;37.974;23.708;2023-04-25T01:53:45;23.70;41.40
80210;DHT22;69529;37.974;23.708;2023-04-25T01:56:13;23.70;41.40
80210;DHT22;69529;37.974;23.708;2023-04-25T01:58:40;23.70;41.20
80210;DHT22;69529;37.974;23.708;2023-04-25T02:01:08;23.70;41.30
80210;DHT22;69529;37.974;23.708;2023-04-25T02:03:36;23.70;41.20
80210;DHT22;69529;37.974;23.708;2023-04-25T02:06:04;23.70;41.20
80210;DHT22;69529;37.974;23.708;2023-04-25T02:08:31;23.70;41.00
80210;DHT22;69529;37.974;23.708;2023-04-25T02:11:00;23.70;40.90
80210;DHT22;69529;37.974;23.708;2023-04-25T02:13:29;23.70;40.90
80210;DHT22;69529;37.974;23.708;2023-04-25T02:15:57;23.70;40.80
80210;DHT22;69529;37.974;23.708;2023-04-25T02:18:24;23.70;41.00
80210;DHT22;69529;37.974;23.708;2023-04-25T02:20:52;23.70;40.80
80210;DHT22;69529;37.974;23.708;2023-04-25T02:23:20;23.70;40.70
80210;DHT22;69529;37.974;23.708;2023-04-25T02:25:48;23.70;40.50
80210;DHT22;69529;37.974;23.708;2023-04-25T02:28:16;23.70;40.30
80210;DHT22;69529;37.974;23.708;2023-04-25T02:30:44;23.70;40.30
80210;DHT22;69529;37.974;23.708;2023-04-25T02:33:11;23.70;40.10
80210;DHT22;69529;37.974;23.708;2023-04-25T02:35:39;23.70;40.00
80210;DHT22;69529;37.974;23.708;2023-04-25T02:38:07;23.70;40.00
80210;DHT22;69529;37.974;23.708;2023-04-25T02:40:34;23.70;40.00
80210;DHT22;69529;37.974;23.708;2023-04-25T02:43:02;23.60;39.80
80210;DHT22;69529;37.974;23.708;2023-04-25T02:45:30;23.60;39.90
80210;DHT22;69529;37.974;23.708;2023-04-25T02:47:57;23.60;39.90
80210;DHT22;69529;37.974;23.708;2023-04-25T02:50:26;23.60;39.80
80210;DHT22;69529;37.974;23.708;2023-04-25T02:52:54;23.60;39.90
80210;DHT22;69529;37.974;23.708;2023-04-25T02:55:22;23.60;39.80
80210;DHT22;69529;37.974;23.708;2023-04-25T02:57:50;23.60;39.80
80210;DHT22;69529;37.974;23.708;2023-04-25T03:00:17;23.50;39.70
80210;DHT22;69529;37.974;23.708;2023-04-25T03:02:45;23.50;39.90
80210;DHT22;69529;37.974;23.708;2023-04-25T03:05:13;23.50;39.80
80210;DHT22;69529;37.974;23.708;2023-04-25T03:07:40;23.60;39.80
80210;DHT22;69529;37.974;23.708;2023-04-25T03:10:10;23.50;39.80
80210;DHT22;69529;37.974;23.708;2023-04-25T03:12:39;23.60;39.80
80210;DHT22;69529;37.974;23.708;2023-04-25T03:15:07;23.60;39.80
80210;DHT22;69529;37.974;23.708;2023-04-25T03:17:34;23.50;39.90
80210;DHT22;69529;37.974;23.708;2023-04-25T03:20:03;23.50;40.00
80210;DHT22;69529;37.974;23.708;2023-04-25T03:22:30;23.50;40.10
80210;DHT22;69529;37.974;23.708;2023-04-25T03:24:58;23.50;40.20
80210;DHT22;69529;37.974;23.708;2023-04-25T03:27:26;23.50;40.30
80210;DHT22;69529;37.974;23.708;2023-04-25T03:29:53;23.50;40.30
80210;DHT22;69529;37.974;23.708;2023-04-25T03:32:21;23.50;40.30
80210;DHT22;69529;37.974;23.708;2023-04-25T03:34:49;23.50;40.30
80210;DHT22;69529;37.974;23.708;2023-04-25T03:37:16;23.50;40.30
80210;DHT22;69529;37.974;23.708;2023-04-25T03:39:44;23.50;40.40
80210;DHT22;69529;37.974;23.708;2023-04-25T03:42:12;23.50;40.40
80210;DHT22;69529;37.974;23.708;2023-04-25T03:44:39;23.50;40.40
80210;DHT22;69529;37.974;23.708;2023-04-25T03:47:07;23.50;40.40
80210;DHT22;69529;37.974;23.708;2023-04-25T03:49:35;23.50;40.40
80210;DHT22;69529;37.974;23.708;2023-04-25T03:52:03;23.50;40.40
80210;DHT22;69529;37.974;23.708;2023-04-25T03:54:31;23.50;40.40
80210;DHT22;69529;37.974;23.708;2023-04-25T03:56:58;23.50;40.50
80210;DHT22;69529;37.974;23.708;2023-04-25T03:59:26;23.50;40.50
80210;DHT22;69529;37.974;23.708;2023-04-25T04:01:54;23.50;40.50
80210;DHT22;69529;37.974;23.708;2023-04-25T04:04:22;23.50;40.60
80210;DHT22;69529;37.974;23.708;2023-04-25T04:06:50;23.50;40.70
80210;DHT22;69529;37.974;23.708;2023-04-25T04:09:19;23.50;40.80
80210;DHT22;69529;37.974;23.708;2023-04-25T04:11:47;23.60;41.00
80210;DHT22;69529;37.974;23.708;2023-04-25T04:14:14;23.60;42.60
80210;DHT22;69529;37.974;23.708;2023-04-25T04:16:42;23.60;41.40
80210;DHT22;69529;37.974;23.708;2023-04-25T04:19:10;23.60;41.20
80210;DHT22;69529;37.974;23.708;2023-04-25T04:21:37;23.60;41.60
80210;DHT22;69529;37.974;23.708;2023-04-25T04:24:05;23.70;41.60
80210;DHT22;69529;37.974;23.708;2023-04-25T04:26:33;23.70;41.70
80210;DHT22;69529;37.974;23.708;2023-04-25T04:29:01;23.70;41.40
80210;DHT22;69529;37.974;23.708;2023-04-25T04:31:28;23.80;41.70
80210;DHT22;69529;37.974;23.708;2023-04-25T04:33:56;23.80;41.60
80210;DHT22;69529;37.974;23.708;2023-04-25T04:36:24;23.90;41.50
80210;DHT22;69529;37.974;23.708;2023-04-25T04:38:53;23.90;41.50
80210;DHT22;69529;37.974;23.708;2023-04-25T04:41:20;24.00;41.50
80210;DHT22;69529;37.974;23.708;2023-04-25T04:43:48;24.00;41.40
80210;DHT22;69529;37.974;23.708;2023-04-25T04:46:15;24.10;41.40
80210;DHT22;69529;37.974;23.708;2023-04-25T04:48:44;24.10;41.90
80210;DHT22;69529;37.974;23.708;2023-04-25T04:51:12;24.10;41.20
80210;DHT22;69529;37.974;23.708;2023-04-25T04:53:40;24.10;41.00
80210;DHT22;69529;37.974;23.708;2023-04-25T04:56:07;24.30;40.90
80210;DHT22;69529;37.974;23.708;2023-04-25T04:58:35;24.30;40.70
80210;DHT22;69529;37.974;23.708;2023-04-25T05:01:03;24.30;40.40
80210;DHT22;69529;37.974;23.708;2023-04-25T05:03:31;24.30;40.40
80210;DHT22;69529;37.974;23.708;2023-04-25T05:05:59;24.40;40.40
80210;DHT22;69529;37.974;23.708;2023-04-25T05:08:26;24.40;40.20
80210;DHT22;69529;37.974;23.708;2023-04-25T05:10:54;24.50;40.10
80210;DHT22;69529;37.974;23.708;2023-04-25T05:13:22;24.50;40.10
80210;DHT22;69529;37.974;23.708;2023-04-25T05:15:49;24.60;40.00
80210;DHT22;69529;37.974;23.708;2023-04-25T05:18:17;24.60;39.70
80210;DHT22;69529;37.974;23.708;2023-04-25T05:20:45;24.70;39.50
80210;DHT22;69529;37.974;23.708;2023-04-25T05:23:12;24.70;39.00
80210;DHT22;69529;37.974;23.708;2023-04-25T05:25:40;24.80;38.60
80210;DHT22;69529;37.974;23.708;2023-04-25T05:28:08;24.90;38.40
80210;DHT22;69529;37.974;23.708;2023-04-25T05:30:35;25.00;37.90
80210;DHT22;69529;37.974;23.708;2023-04-25T05:33:03;25.10;37.60
80210;DHT22;69529;37.974;23.708;2023-04-25T05:35:31;25.30;37.20
80210;DHT22;69529;37.974;23.708;2023-04-25T05:37:58;25.40;36.70
80210;DHT22;69529;37.974;23.708;2023-04-25T05:40:26;25.60;36.90
80210;DHT22;69529;37.974;23.708;2023-04-25T05:42:54;25.80;35.90
80210;DHT22;69529;37.974;23.708;2023-04-25T05:45:21;26.00;35.40
80210;DHT22;69529;37.974;23.708;2023-04-25T05:47:49;26.20;34.80
80210;DHT22;69529;37.974;23.708;2023-04-25T05:50:17;26.40;34.50
80210;DHT22;69529;37.974;23.708;2023-04-25T05:52:45;26.30;34.60
80210;DHT22;69529;37.974;23.708;2023-04-25T05:55:12;26.10;34.60
80210;DHT22;69529;37.974;23.708;2023-04-25T05:57:40;26.10;34.60
80210;DHT22;69529;37.974;23.708;2023-04-25T06:00:09;26.30;34.50
80210;DHT22;69529;37.974;23.708;2023-04-25T06:02:37;26.20;35.00
80210;DHT22;69529;37.974;23.708;2023-04-25T06:05:05;26.20;34.30
80210;DHT22;69529;37.974;23.708;2023-04-25T06:07:33;26.20;34.30
80210;DHT22;69529;37.974;23.708;2023-04-25T06:10:00;26.10;34.20
80210;DHT22;69529;37.974;23.708;2023-04-25T06:12:28;26.10;34.30
80210;DHT22;69529;37.974;23.708;2023-04-25T06:14:56;26.10;34.30
80210;DHT22;69529;37.974;23.708;2023-04-25T06:17:23;26.00;34.30
80210;DHT22;69529;37.974;23.708;2023-04-25T06:19:51;26.00;34.30
80210;DHT22;69529;37.974;23.708;2023-04-25T06:22:19;25.90;34.40
80210;DHT22;69529;37.974;23.708;2023-04-25T06:24:47;25.90;34.40
80210;DHT22;69529;37.974;23.708;2023-04-25T06:27:14;25.80;34.50
80210;DHT22;69529;37.974;23.708;2023-04-25T06:29:42;25.70;34.60
80210;DHT22;69529;37.974;23.708;2023-04-25T06:32:10;25.80;34.60
80210;DHT22;69529;37.974;23.708;2023-04-25T06:34:39;25.80;34.40
80210;DHT22;69529;37.974;23.708;2023-04-25T06:37:06;25.80;34.20
80210;DHT22;69529;37.974;23.708;2023-04-25T06:39:34;25.80;34.30
80210;DHT22;69529;37.974;23.708;2023-04-25T06:42:01;25.80;34.40
80210;DHT22;69529;37.974;23.708;2023-04-25T06:44:29;25.60;34.60
80210;DHT22;69529;37.974;23.708;2023-04-25T06:46:57;25.50;34.80
80210;DHT22;69529;37.974;23.708;2023-04-25T06:49:25;25.50;35.00
80210;DHT22;69529;37.974;23.708;2023-04-25T06:51:52;25.50;34.90
80210;DHT22;69529;37.974;23.708;2023-04-25T06:54:20;25.40;35.00
80210;DHT22;69529;37.974;23.708;2023-04-25T06:56:47;25.40;35.20
80210;DHT22;69529;37.974;23.708;2023-04-25T06:59:15;25.40;35.30
80210;DHT22;69529;37.974;23.708;2023-04-25T07:01:43;25.30;35.50
80210;DHT22;69529;37.974;23.708;2023-04-25T07:04:10;25.40;35.00
80210;DHT22;69529;37.974;23.708;2023-04-25T07:06:38;25.50;34.70
80210;DHT22;69529;37.974;23.708;2023-04-25T07:09:12;25.50;34.60
80210;DHT22;69529;37.974;23.708;2023-04-25T07:11:37;25.40;34.60
80210;DHT22;69529;37.974;23.708;2023-04-25T07:14:25;25.60;34.70
80210;DHT22;69529;37.974;23.708;2023-04-25T07:16:53;25.40;34.50
80210;DHT22;69529;37.974;23.708;2023-04-25T07:19:22;25.40;34.50
80210;DHT22;69529;37.974;23.708;2023-04-25T07:21:52;25.40;34.90
80210;DHT22;69529;37.974;23.708;2023-04-25T07:24:19;25.50;35.10
80210;DHT22;69529;37.974;23.708;2023-04-25T07:26:47;25.50;35.10
80210;DHT22;69529;37.974;23.708;2023-04-25T07:29:15;25.40;35.30
80210;DHT22;69529;37.974;23.708;2023-04-25T07:31:43;25.50;35.60
80210;DHT22;69529;37.974;23.708;2023-04-25T07:34:10;25.60;35.50
80210;DHT22;69529;37.974;23.708;2023-04-25T07:36:38;25.60;35.60
80210;DHT22;69529;37.974;23.708;2023-04-25T07:39:06;25.60;35.60
80210;DHT22;69529;37.974;23.708;2023-04-25T07:41:35;25.60;35.60
80210;DHT22;69529;37.974;23.708;2023-04-25T07:44:03;25.60;35.20
80210;DHT22;69529;37.974;23.708;2023-04-25T07:48:58;25.60;34.80
80210;DHT22;69529;37.974;23.708;2023-04-25T07:51:25;25.50;35.30
80210;DHT22;69529;37.974;23.708;2023-04-25T07:53:54;25.50;35.60
80210;DHT22;69529;37.974;23.708;2023-04-25T07:56:21;25.50;35.60
80210;DHT22;69529;37.974;23.708;2023-04-25T07:58:49;25.50;35.60
80210;DHT22;69529;37.974;23.708;2023-04-25T08:01:17;25.50;35.70
80210;DHT22;69529;37.974;23.708;2023-04-25T08:03:46;25.60;35.80
80210;DHT22;69529;37.974;23.708;2023-04-25T08:06:14;25.60;36.10
80210;DHT22;69529;37.974;23.708;2023-04-25T08:08:42;25.70;36.70
80210;DHT22;69529;37.974;23.708;2023-04-25T08:11:11;25.60;35.70
80210;DHT22;69529;37.974;23.708;2023-04-25T08:13:38;25.60;35.90
80210;DHT22;69529;37.974;23.708;2023-04-25T08:16:06;25.60;36.00
80210;DHT22;69529;37.974;23.708;2023-04-25T08:18:34;25.60;35.80
80210;DHT22;69529;37.974;23.708;2023-04-25T08:21:01;25.60;35.70
80210;DHT22;69529;37.974;23.708;2023-04-25T08:23:29;25.60;36.30
80210;DHT22;69529;37.974;23.708;2023-04-25T08:25:57;25.60;35.70
80210;DHT22;69529;37.974;23.708;2023-04-25T08:28:24;25.60;35.60
80210;DHT22;69529;37.974;23.708;2023-04-25T08:30:52;25.70;35.70
80210;DHT22;69529;37.974;23.708;2023-04-25T08:33:20;25.70;35.80
80210;DHT22;69529;37.974;23.708;2023-04-25T08:35:47;25.70;35.60
80210;DHT22;69529;37.974;23.708;2023-04-25T08:38:15;25.70;35.50
80210;DHT22;69529;37.974;23.708;2023-04-25T08:40:43;25.60;35.50
80210;DHT22;69529;37.974;23.708;2023-04-25T08:43:13;25.60;35.60
80210;DHT22;69529;37.974;23.708;2023-04-25T08:45:42;25.60;35.50
80210;DHT22;69529;37.974;23.708;2023-04-25T08:48:12;25.60;35.40
80210;DHT22;69529;37.974;23.708;2023-04-25T08:50:54;25.60;35.50
80210;DHT22;69529;37.974;23.708;2023-04-25T08:53:28;25.60;35.60
80210;DHT22;69529;37.974;23.708;2023-04-25T08:55:58;25.50;36.00
80210;DHT22;69529;37.974;23.708;2023-04-25T08:58:27;25.50;36.10
80210;DHT22;69529;37.974;23.708;2023-04-25T09:00:55;25.50;36.30
80210;DHT22;69529;37.974;23.708;2023-04-25T09:03:23;25.50;36.10
80210;DHT22;69529;37.974;23.708;2023-04-25T09:05:51;25.40;36.10
80210;DHT22;69529;37.974;23.708;2023-04-25T09:08:19;25.40;36.00
80210;DHT22;69529;37.974;23.708;2023-04-25T09:10:46;25.40;36.10
80210;DHT22;69529;37.974;23.708;2023-04-25T09:13:23;25.30;36.20
80210;DHT22;69529;37.974;23.708;2023-04-25T09:15:50;25.30;36.20
80210;DHT22;69529;37.974;23.708;2023-04-25T09:18:29;25.30;36.20
80210;DHT22;69529;37.974;23.708;2023-04-25T09:21:08;25.30;36.20
80210;DHT22;69529;37.974;23.708;2023-04-25T09:23:27;25.30;36.40
80210;DHT22;69529;37.974;23.708;2023-04-25T09:25:55;25.30;36.20
80210;DHT22;69529;37.974;23.708;2023-04-25T09:28:26;25.30;36.20
80210;DHT22;69529;37.974;23.708;2023-04-25T09:30:57;25.30;36.30
80210;DHT22;69529;37.974;23.708;2023-04-25T09:33:33;25.30;36.30
80210;DHT22;69529;37.974;23.708;2023-04-25T09:36:09;25.30;36.30
80210;DHT22;69529;37.974;23.708;2023-04-25T09:38:45;25.30;36.50
80210;DHT22;69529;37.974;23.708;2023-04-25T09:41:13;25.20;36.60
80210;DHT22;69529;37.974;23.708;2023-04-25T09:43:42;25.20;36.80
80210;DHT22;69529;37.974;23.708;2023-04-25T09:46:11;25.20;36.80
80210;DHT22;69529;37.974;23.708;2023-04-25T09:48:40;25.20;36.90
80210;DHT22;69529;37.974;23.708;2023-04-25T09:51:12;25.30;37.00
80210;DHT22;69529;37.974;23.708;2023-04-25T09:53:46;25.40;36.80
80210;DHT22;69529;37.974;23.708;2023-04-25T09:56:16;25.50;36.30
80210;DHT22;69529;37.974;23.708;2023-04-25T09:58:43;25.50;36.00
80210;DHT22;69529;37.974;23.708;2023-04-25T10:01:11;25.60;35.80
80210;DHT22;69529;37.974;23.708;2023-04-25T10:03:40;25.60;35.60
80210;DHT22;69529;37.974;23.708;2023-04-25T10:06:14;25.60;35.60
80210;DHT22;69529;37.974;23.708;2023-04-25T10:08:42;25.60;35.80
80210;DHT22;69529;37.974;23.708;2023-04-25T10:11:10;25.60;35.90
80210;DHT22;69529;37.974;23.708;2023-04-25T10:13:40;25.60;35.90
80210;DHT22;69529;37.974;23.708;2023-04-25T10:16:09;25.60;35.90
80210;DHT22;69529;37.974;23.708;2023-04-25T10:18:36;25.60;35.90
80210;DHT22;69529;37.974;23.708;2023-04-25T10:21:05;25.70;36.00
80210;DHT22;69529;37.974;23.708;2023-04-25T10:23:33;25.60;36.00
80210;DHT22;69529;37.974;23.708;2023-04-25T10:26:01;25.60;36.00
80210;DHT22;69529;37.974;23.708;2023-04-25T10:28:29;25.60;36.00
80210;DHT22;69529;37.974;23.708;2023-04-25T10:31:00;25.60;36.00
80210;DHT22;69529;37.974;23.708;2023-04-25T10:33:32;25.50;35.90
80210;DHT22;69529;37.974;23.708;2023-04-25T10:36:17;25.40;35.90
80210;DHT22;69529;37.974;23.708;2023-04-25T10:38:43;25.40;35.90
80210;DHT22;69529;37.974;23.708;2023-04-25T10:41:12;25.40;35.80
80210;DHT22;69529;37.974;23.708;2023-04-25T10:43:44;25.40;35.70
80210;DHT22;69529;37.974;23.708;2023-04-25T10:46:23;25.50;35.60
80210;DHT22;69529;37.974;23.708;2023-04-25T10:48:55;25.40;35.10
80210;DHT22;69529;37.974;23.708;2023-04-25T10:51:33;25.40;35.30
80210;DHT22;69529;37.974;23.708;2023-04-25T10:54:03;25.40;35.40
80210;DHT22;69529;37.974;23.708;2023-04-25T10:59:14;25.40;35.70
80210;DHT22;69529;37.974;23.708;2023-04-25T11:01:51;25.40;35.70
80210;DHT22;69529;37.974;23.708;2023-04-25T11:04:29;25.40;35.80
80210;DHT22;69529;37.974;23.708;2023-04-25T11:09:35;25.60;35.40
80210;DHT22;69529;37.974;23.708;2023-04-25T11:12:04;25.50;35.40
80210;DHT22;69529;37.974;23.708;2023-04-25T11:14:32;25.50;35.30
80210;DHT22;69529;37.974;23.708;2023-04-25T11:17:00;25.50;35.60
80210;DHT22;69529;37.974;23.708;2023-04-25T11:19:30;25.50;35.20
80210;DHT22;69529;37.974;23.708;2023-04-25T11:21:59;25.50;35.20
80210;DHT22;69529;37.974;23.708;2023-04-25T11:24:32;25.50;35.10
80210;DHT22;69529;37.974;23.708;2023-04-25T11:27:02;25.50;35.10
80210;DHT22;69529;37.974;23.708;2023-04-25T11:29:31;25.50;35.30
80210;DHT22;69529;37.974;23.708;2023-04-25T11:31:59;25.60;35.20
80210;DHT22;69529;37.974;23.708;2023-04-25T11:34:28;25.60;35.10
80210;DHT22;69529;37.974;23.708;2023-04-25T11:37:00;25.60;34.90
80210;DHT22;69529;37.974;23.708;2023-04-25T11:39:28;25.50;34.80
80210;DHT22;69529;37.974;23.708;2023-04-25T11:41:56;25.50;34.80
80210;DHT22;69529;37.974;23.708;2023-04-25T11:44:24;25.50;34.70
80210;DHT22;69529;37.974;23.708;2023-04-25T11:46:52;25.50;34.60
80210;DHT22;69529;37.974;23.708;2023-04-25T11:49:20;25.50;34.60
80210;DHT22;69529;37.974;23.708;2023-04-25T11:51:49;25.60;35.10
80210;DHT22;69529;37.974;23.708;2023-04-25T11:54:16;25.60;34.50
80210;DHT22;69529;37.974;23.708;2023-04-25T11:56:45;25.50;34.60
80210;DHT22;69529;37.974;23.708;2023-04-25T11:59:13;25.60;34.80
80210;DHT22;69529;37.974;23.708;2023-04-25T12:01:49;25.50;35.10
80210;DHT22;69529;37.974;23.708;2023-04-25T12:04:16;25.60;35.10
80210;DHT22;69529;37.974;23.708;2023-04-25T12:06:45;25.60;35.20
80210;DHT22;69529;37.974;23.708;2023-04-25T12:09:16;25.60;35.50
80210;DHT22;69529;37.974;23.708;2023-04-25T12:11:53;25.60;35.40
80210;DHT22;69529;37.974;23.708;2023-04-25T12:14:22;25.60;35.30
80210;DHT22;69529;37.974;23.708;2023-04-25T12:16:56;25.70;35.30
80210;DHT22;69529;37.974;23.708;2023-04-25T12:19:24;25.70;35.20
80210;DHT22;69529;37.974;23.708;2023-04-25T12:21:52;25.80;35.20
80210;DHT22;69529;37.974;23.708;2023-04-25T12:24:24;25.80;35.10
80210;DHT22;69529;37.974;23.708;2023-04-25T12:29:24;25.50;34.30
80210;DHT22;69529;37.974;23.708;2023-04-25T12:31:53;25.60;34.50
80210;DHT22;69529;37.974;23.708;2023-04-25T12:34:22;25.60;34.60
80210;DHT22;69529;37.974;23.708;2023-04-25T12:36:50;25.70;34.80
80210;DHT22;69529;37.974;23.708;2023-04-25T12:39:20;25.70;35.10
80210;DHT22;69529;37.974;23.708;2023-04-25T12:41:49;25.70;35.20
80210;DHT22;69529;37.974;23.708;2023-04-25T12:44:17;25.70;35.40
80210;DHT22;69529;37.974;23.708;2023-04-25T12:46:44;25.70;35.30
80210;DHT22;69529;37.974;23.708;2023-04-25T12:49:12;25.80;35.50
80210;DHT22;69529;37.974;23.708;2023-04-25T12:51:40;25.80;35.60
80210;DHT22;69529;37.974;23.708;2023-04-25T12:56:43;25.80;35.80
80210;DHT22;69529;37.974;23.708;2023-04-25T12:59:11;25.70;35.80
80210;DHT22;69529;37.974;23.708;2023-04-25T13:01:39;25.80;35.90
80210;DHT22;69529;37.974;23.708;2023-04-25T13:04:08;25.70;36.00
80210;DHT22;69529;37.974;23.708;2023-04-25T13:06:36;25.70;36.00
80210;DHT22;69529;37.974;23.708;2023-04-25T13:09:03;25.70;36.10
80210;DHT22;69529;37.974;23.708;2023-04-25T13:11:31;25.70;36.10
80210;DHT22;69529;37.974;23.708;2023-04-25T13:13:59;25.70;36.00
80210;DHT22;69529;37.974;23.708;2023-04-25T13:16:26;25.70;36.00
80210;DHT22;69529;37.974;23.708;2023-04-25T13:18:54;25.80;35.90
80210;DHT22;69529;37.974;23.708;2023-04-25T13:21:22;25.80;35.90
80210;DHT22;69529;37.974;23.708;2023-04-25T13:23:50;25.60;35.80
80210;DHT22;69529;37.974;23.708;2023-04-25T13:26:18;25.60;35.80
80210;DHT22;69529;37.974;23.708;2023-04-25T13:28:46;25.60;35.80
80210;DHT22;69529;37.974;23.708;2023-04-25T13:31:13;25.60;36.00
80210;DHT22;69529;37.974;23.708;2023-04-25T13:33:42;25.60;35.80
80210;DHT22;69529;37.974;23.708;2023-04-25T13:36:10;25.60;35.80
80210;DHT22;69529;37.974;23.708;2023-04-25T13:38:38;25.60;35.50
80210;DHT22;69529;37.974;23.708;2023-04-25T13:41:08;25.60;35.50
80210;DHT22;69529;37.974;23.708;2023-04-25T13:43:37;25.60;35.30
80210;DHT22;69529;37.974;23.708;2023-04-25T13:46:05;25.60;35.30
80210;DHT22;69529;37.974;23.708;2023-04-25T13:48:34;25.60;35.30
80210;DHT22;69529;37.974;23.708;2023-04-25T13:51:03;25.50;35.30
80210;DHT22;69529;37.974;23.708;2023-04-25T13:53:32;25.40;35.30
80210;DHT22;69529;37.974;23.708;2023-04-25T13:56:01;25.40;35.30
80210;DHT22;69529;37.974;23.708;2023-04-25T13:58:29;25.40;35.30
80210;DHT22;69529;37.974;23.708;2023-04-25T14:00:57;25.40;35.10
80210;DHT22;69529;37.974;23.708;2023-04-25T14:03:25;25.40;35.80
80210;DHT22;69529;37.974;23.708;2023-04-25T14:05:52;25.40;35.10
80210;DHT22;69529;37.974;23.708;2023-04-25T14:08:20;25.40;35.10
80210;DHT22;69529;37.974;23.708;2023-04-25T14:10:48;25.40;35.20
80210;DHT22;69529;37.974;23.708;2023-04-25T14:13:16;25.30;35.20
80210;DHT22;69529;37.974;23.708;2023-04-25T14:15:44;25.30;35.20
80210;DHT22;69529;37.974;23.708;2023-04-25T14:18:12;25.30;35.30
80210;DHT22;69529;37.974;23.708;2023-04-25T14:20:43;25.30;35.30
80210;DHT22;69529;37.974;23.708;2023-04-25T14:23:10;25.30;35.40
80210;DHT22;69529;37.974;23.708;2023-04-25T14:25:38;25.30;35.50
80210;DHT22;69529;37.974;23.708;2023-04-25T14:28:06;25.20;35.60
80210;DHT22;69529;37.974;23.708;2023-04-25T14:30:34;25.20;35.80
80210;DHT22;69529;37.974;23.708;2023-04-25T14:33:02;25.20;35.70
80210;DHT22;69529;37.974;23.708;2023-04-25T14:35:29;25.30;35.80
80210;DHT22;69529;37.974;23.708;2023-04-25T14:37:57;25.30;35.80
80210;DHT22;69529;37.974;23.708;2023-04-25T14:40:26;25.30;35.90
80210;DHT22;69529;37.974;23.708;2023-04-25T14:42:53;25.20;35.80
80210;DHT22;69529;37.974;23.708;2023-04-25T14:45:21;25.20;35.90
80210;DHT22;69529;37.974;23.708;2023-04-25T14:47:49;25.30;36.00
80210;DHT22;69529;37.974;23.708;2023-04-25T14:50:16;25.30;36.00
80210;DHT22;69529;37.974;23.708;2023-04-25T14:52:44;25.30;36.20
80210;DHT22;69529;37.974;23.708;2023-04-25T14:55:12;25.20;36.20
80210;DHT22;69529;37.974;23.708;2023-04-25T14:57:40;25.20;36.30
80210;DHT22;69529;37.974;23.708;2023-04-25T15:00:08;25.10;36.40
80210;DHT22;69529;37.974;23.708;2023-04-25T15:02:38;25.10;36.50
80210;DHT22;69529;37.974;23.708;2023-04-25T15:05:06;25.10;36.50
80210;DHT22;69529;37.974;23.708;2023-04-25T15:07:35;25.10;36.60
80210;DHT22;69529;37.974;23.708;2023-04-25T15:10:03;25.20;36.60
80210;DHT22;69529;37.974;23.708;2023-04-25T15:12:32;25.10;36.70
80210;DHT22;69529;37.974;23.708;2023-04-25T15:15:00;25.10;36.70
80210;DHT22;69529;37.974;23.708;2023-04-25T15:17:28;25.10;36.80
80210;DHT22;69529;37.974;23.708;2023-04-25T15:19:57;25.10;37.40
80210;DHT22;69529;37.974;23.708;2023-04-25T15:22:25;25.10;36.70
80210;DHT22;69529;37.974;23.708;2023-04-25T15:24:53;25.10;36.90
80210;DHT22;69529;37.974;23.708;2023-04-25T15:27:22;25.00;37.00
80210;DHT22;69529;37.974;23.708;2023-04-25T15:29:50;25.00;37.10
80210;DHT22;69529;37.974;23.708;2023-04-25T15:32:20;25.00;37.20
80210;DHT22;69529;37.974;23.708;2023-04-25T15:34:49;24.90;37.40